createdAt,value
2023-02-06T00:00:28.041Z,64.50
2023-02-06T00:02:01.394Z,64.60
2023-02-06T00:03:34.516Z,64.50
2023-02-06T00:05:08.640Z,64.40
2023-02-06T00:06:42.297Z,64.40
2023-02-06T00:08:16.882Z,64.40
2023-02-06T00:09:50.077Z,64.20
2023-02-06T00:11:23.540Z,64.50
2023-02-06T00:12:57.038Z,64.50
2023-02-06T00:14:30.263Z,64.60
2023-02-06T00:16:04.506Z,64.70
2023-02-06T00:17:38.219Z,64.80
2023-02-06T00:19:11.412Z,65.80
2023-02-06T00:20:43.612Z,65.00
2023-02-06T00:22:16.694Z,64.90
2023-02-06T00:23:52.893Z,64.90
2023-02-06T00:25:25.988Z,65.00
2023-02-06T00:26:58.386Z,65.00
2023-02-06T00:28:31.507Z,65.00
2023-02-06T00:30:05.447Z,65.10
2023-02-06T00:31:39.021Z,65.00
2023-02-06T00:33:12.077Z,65.00
2023-02-06T00:34:45.148Z,64.90
2023-02-06T00:36:18.804Z,64.90
2023-02-06T00:37:51.651Z,65.00
2023-02-06T00:39:27.597Z,65.10
2023-02-06T00:41:00.926Z,65.10
2023-02-06T00:42:34.576Z,65.00
2023-02-06T00:44:07.674Z,64.80
2023-02-06T00:45:39.840Z,64.60
2023-02-06T00:47:12.913Z,64.60
2023-02-06T00:48:46.356Z,65.30
2023-02-06T00:50:18.927Z,64.50
2023-02-06T00:51:52.427Z,64.60
2023-02-06T00:53:25.588Z,64.70
2023-02-06T00:55:00.037Z,64.70
2023-02-06T00:56:33.570Z,64.70
2023-02-06T00:58:05.846Z,64.90
2023-02-06T00:59:38.958Z,64.80
2023-02-06T01:01:12.120Z,64.70
2023-02-06T01:02:45.727Z,64.80
2023-02-06T01:04:18.924Z,64.60
2023-02-06T01:05:52.090Z,64.60
2023-02-06T01:07:24.386Z,64.80
2023-02-06T01:08:58.238Z,64.80
2023-02-06T01:10:35.924Z,64.90
2023-02-06T01:12:08.193Z,64.90
2023-02-06T01:13:41.974Z,64.80
2023-02-06T01:15:14.554Z,64.80
2023-02-06T01:16:47.932Z,64.80
2023-02-06T01:18:21.118Z,64.80
2023-02-06T01:19:54.607Z,64.80
2023-02-06T01:21:27.826Z,64.80
2023-02-06T01:23:01.068Z,64.70
2023-02-06T01:24:34.403Z,64.70
2023-02-06T01:26:11.976Z,64.80
2023-02-06T01:27:45.333Z,64.80
2023-02-06T01:29:19.553Z,65.00
2023-02-06T01:30:53.965Z,64.80
2023-02-06T01:32:26.120Z,64.70
2023-02-06T01:34:01.467Z,64.70
2023-02-06T01:35:34.325Z,64.80
2023-02-06T01:37:07.610Z,64.80
2023-02-06T01:38:42.118Z,65.10
2023-02-06T01:40:18.099Z,65.10
2023-02-06T01:41:52.763Z,65.10
2023-02-06T01:43:29.794Z,65.00
2023-02-06T01:45:37.474Z,64.90
2023-02-06T01:47:12.102Z,64.70
2023-02-06T01:48:51.713Z,64.70
2023-02-06T01:50:24.329Z,64.70
2023-02-06T01:52:05.535Z,64.70
2023-02-06T01:53:40.243Z,64.70
2023-02-06T01:55:14.048Z,64.80
2023-02-06T01:56:55.542Z,64.70
2023-02-06T01:58:34.896Z,64.70
2023-02-06T02:00:12.353Z,64.60
2023-02-06T02:01:46.035Z,64.60
2023-02-06T02:03:18.686Z,64.60
2023-02-06T02:04:52.066Z,64.80
2023-02-06T02:06:28.329Z,64.50
2023-02-06T02:08:13.149Z,64.50
2023-02-06T02:09:46.522Z,64.50
2023-02-06T02:11:24.997Z,64.50
2023-02-06T02:12:58.649Z,64.60
2023-02-06T02:14:32.782Z,64.50
2023-02-06T02:16:17.819Z,64.40
2023-02-06T02:18:07.866Z,64.60
2023-02-06T02:20:38.925Z,64.70
2023-02-06T02:22:46.959Z,64.60
2023-02-06T02:24:31.568Z,64.70
2023-02-06T02:27:01.306Z,64.50
2023-02-06T02:29:20.889Z,64.50
2023-02-06T02:31:28.122Z,64.50
2023-02-06T02:33:54.147Z,64.60
2023-02-06T02:35:38.791Z,64.60
2023-02-06T02:37:26.032Z,64.60
2023-02-06T02:39:10.787Z,64.40
2023-02-06T02:40:51.867Z,64.20
2023-02-06T02:42:37.633Z,64.10
2023-02-06T02:44:17.768Z,64.10
2023-02-06T02:45:58.726Z,64.20
2023-02-06T02:47:45.385Z,64.20
2023-02-06T02:49:22.728Z,64.10
2023-02-06T02:50:59.540Z,64.10
2023-02-06T02:52:32.708Z,64.20
2023-02-06T02:54:06.630Z,64.20
2023-02-06T02:55:39.822Z,64.40
2023-02-06T02:57:21.596Z,65.20
2023-02-06T02:58:59.102Z,64.60
2023-02-06T03:00:36.928Z,64.60
2023-02-06T03:02:16.738Z,64.80
2023-02-06T03:03:54.102Z,64.70
2023-02-06T03:05:29.137Z,64.70
2023-02-06T03:07:14.873Z,64.50
2023-02-06T03:08:57.152Z,64.50
2023-02-06T03:10:42.175Z,64.60
2023-02-06T03:12:25.808Z,64.60
2023-02-06T03:14:06.862Z,64.50
2023-02-06T03:15:55.691Z,64.30
2023-02-06T03:17:37.261Z,64.30
2023-02-06T03:19:15.958Z,64.20
2023-02-06T03:20:50.699Z,64.20
2023-02-06T03:22:25.677Z,64.10
2023-02-06T03:24:02.494Z,64.10
2023-02-06T03:25:41.436Z,64.00
2023-02-06T03:27:18.398Z,64.10
2023-02-06T03:28:56.644Z,64.20
2023-02-06T03:30:33.227Z,64.10
2023-02-06T03:32:11.930Z,63.90
2023-02-06T03:33:54.236Z,63.90
2023-02-06T03:35:35.540Z,63.70
2023-02-06T03:37:10.144Z,63.70
2023-02-06T03:38:45.850Z,63.80
2023-02-06T03:40:20.240Z,63.70
2023-02-06T03:41:56.944Z,63.80
2023-02-06T03:43:30.715Z,63.90
2023-02-06T03:45:10.801Z,63.90
2023-02-06T03:46:45.916Z,63.90
2023-02-06T03:48:25.237Z,64.70
2023-02-06T03:50:01.669Z,64.00
2023-02-06T03:51:41.179Z,64.00
2023-02-06T03:53:16.116Z,64.00
2023-02-06T03:54:54.315Z,64.10
2023-02-06T03:56:32.591Z,64.20
2023-02-06T03:58:12.504Z,64.20
2023-02-06T03:59:45.805Z,64.10
2023-02-06T04:01:20.990Z,64.10
2023-02-06T04:02:57.644Z,64.30
2023-02-06T04:04:34.546Z,64.40
2023-02-06T04:06:08.290Z,64.40
2023-02-06T04:07:42.079Z,64.40
2023-02-06T04:09:15.577Z,65.20
2023-02-06T04:10:50.319Z,64.30
2023-02-06T04:12:24.846Z,64.40
2023-02-06T04:13:58.021Z,64.50
2023-02-06T04:15:31.116Z,64.30
2023-02-06T04:17:03.825Z,64.50
2023-02-06T04:18:37.006Z,64.50
2023-02-06T04:20:11.566Z,64.50
2023-02-06T04:21:45.588Z,64.60
2023-02-06T04:23:19.448Z,64.60
2023-02-06T04:24:52.583Z,64.50
2023-02-06T04:26:27.289Z,64.40
2023-02-06T04:27:59.479Z,64.50
2023-02-06T04:29:32.659Z,64.50
2023-02-06T04:31:06.108Z,64.50
2023-02-06T04:32:38.366Z,64.50
2023-02-06T04:34:11.806Z,64.50
2023-02-06T04:35:45.108Z,64.60
2023-02-06T04:37:18.528Z,64.70
2023-02-06T04:38:51.739Z,64.70
2023-02-06T04:40:23.895Z,64.80
2023-02-06T04:41:58.821Z,64.80
2023-02-06T04:43:32.617Z,64.70
2023-02-06T04:45:06.765Z,64.80
2023-02-06T04:46:39.871Z,64.70
2023-02-06T04:48:13.021Z,64.50
2023-02-06T04:49:46.184Z,64.60
2023-02-06T04:51:19.553Z,64.60
2023-02-06T04:52:52.633Z,64.60
2023-02-06T04:54:26.014Z,64.40
2023-02-06T04:56:04.107Z,64.30
2023-02-06T04:57:38.962Z,64.30
2023-02-06T04:59:12.219Z,64.30
2023-02-06T05:00:45.375Z,64.40
2023-02-06T05:02:17.556Z,64.20
2023-02-06T05:03:50.985Z,64.00
2023-02-06T05:05:24.322Z,64.00
2023-02-06T05:06:57.520Z,64.00
2023-02-06T05:08:30.820Z,64.10
2023-02-06T05:10:05.298Z,64.10
2023-02-06T05:11:37.632Z,64.20
2023-02-06T05:13:13.194Z,64.10
2023-02-06T05:14:45.331Z,64.00
2023-02-06T05:16:19.714Z,64.10
2023-02-06T05:17:52.842Z,64.20
2023-02-06T05:19:26.050Z,64.10
2023-02-06T05:20:59.182Z,64.20
2023-02-06T05:22:32.476Z,64.30
2023-02-06T05:24:05.216Z,64.30
2023-02-06T05:25:41.333Z,64.30
2023-02-06T05:27:15.318Z,64.20
2023-02-06T05:28:49.888Z,64.10
2023-02-06T05:30:23.381Z,64.00
2023-02-06T05:31:56.593Z,64.00
2023-02-06T05:33:30.546Z,64.10
2023-02-06T05:35:03.781Z,64.20
2023-02-06T05:36:36.408Z,64.00
2023-02-06T05:38:09.615Z,63.90
2023-02-06T05:39:42.835Z,64.00
2023-02-06T05:41:16.131Z,64.20
2023-02-06T05:42:49.657Z,64.20
2023-02-06T05:44:24.178Z,64.20
2023-02-06T05:45:57.365Z,64.50
2023-02-06T05:47:30.593Z,64.40
2023-02-06T05:49:03.649Z,64.50
2023-02-06T05:50:36.756Z,64.40
2023-02-06T05:52:12.255Z,64.60
2023-02-06T05:53:45.425Z,64.70
2023-02-06T05:55:19.087Z,64.70
2023-02-06T05:56:52.206Z,64.70
2023-02-06T05:58:25.528Z,64.70
2023-02-06T06:00:00.129Z,64.80
2023-02-06T06:01:33.382Z,65.00
2023-02-06T06:03:06.716Z,65.10
2023-02-06T06:04:40.035Z,65.40
2023-02-06T06:06:13.320Z,65.40
2023-02-06T06:07:46.515Z,65.30
2023-02-06T06:09:19.686Z,65.30
2023-02-06T06:10:53.527Z,65.40
2023-02-06T06:12:26.896Z,65.40
2023-02-06T06:14:00.274Z,65.30
2023-02-06T06:15:35.200Z,65.30
2023-02-06T06:17:08.708Z,65.30
2023-02-06T06:18:40.840Z,65.20
2023-02-06T06:20:13.996Z,65.20
2023-02-06T06:21:47.331Z,65.20
2023-02-06T06:23:20.553Z,65.20
2023-02-06T06:24:52.735Z,65.20
2023-02-06T06:26:26.151Z,65.10
2023-02-06T06:27:59.330Z,65.10
2023-02-06T06:29:32.482Z,65.10
2023-02-06T06:31:11.680Z,65.00
2023-02-06T06:32:44.987Z,65.20
2023-02-06T06:34:18.742Z,65.00
2023-02-06T06:35:51.951Z,65.00
2023-02-06T06:37:25.118Z,64.80
2023-02-06T06:38:59.020Z,64.80
2023-02-06T06:40:32.348Z,64.80
2023-02-06T06:42:05.698Z,64.70
2023-02-06T06:43:39.341Z,64.80
2023-02-06T06:45:12.585Z,64.80
2023-02-06T06:46:47.052Z,64.80
2023-02-06T06:48:20.178Z,64.90
2023-02-06T06:49:52.413Z,64.90
2023-02-06T06:51:26.671Z,64.90
2023-02-06T06:52:59.798Z,64.90
2023-02-06T06:54:32.937Z,64.90
2023-02-06T06:56:08.561Z,64.80
2023-02-06T06:57:41.973Z,64.90
2023-02-06T06:59:15.177Z,64.80
2023-02-06T07:00:48.675Z,64.90
2023-02-06T07:02:23.265Z,65.00
2023-02-06T07:03:56.424Z,65.00
2023-02-06T07:05:29.688Z,64.90
2023-02-06T07:07:03.179Z,64.80
2023-02-06T07:08:41.670Z,64.90
2023-02-06T07:10:14.994Z,64.90
2023-02-06T07:11:48.457Z,64.90
2023-02-06T07:13:21.618Z,65.00
2023-02-06T07:14:54.877Z,64.90
2023-02-06T07:16:28.129Z,64.90
2023-02-06T07:18:02.707Z,64.90
2023-02-06T07:19:35.842Z,65.20
2023-02-06T07:21:09.629Z,65.20
2023-02-06T07:22:42.996Z,65.30
2023-02-06T07:24:16.133Z,65.30
2023-02-06T07:25:49.514Z,65.20
2023-02-06T07:27:22.726Z,65.30
2023-02-06T07:28:56.011Z,65.30
2023-02-06T07:30:29.188Z,65.30
2023-02-06T07:32:02.500Z,65.30
2023-02-06T07:33:37.735Z,65.40
2023-02-06T07:35:11.026Z,65.40
2023-02-06T07:36:44.495Z,65.60
2023-02-06T07:38:17.862Z,65.50
2023-02-06T07:39:51.020Z,65.60
2023-02-06T07:41:24.451Z,65.60
2023-02-06T07:42:57.553Z,65.70
2023-02-06T07:44:33.940Z,65.60
2023-02-06T07:46:07.432Z,65.70
2023-02-06T07:47:40.687Z,65.60
2023-02-06T07:49:15.856Z,65.60
2023-02-06T07:50:48.804Z,65.60
2023-02-06T07:52:22.594Z,65.60
2023-02-06T07:53:55.772Z,65.40
2023-02-06T07:55:29.589Z,65.30
2023-02-06T07:57:03.079Z,65.40
2023-02-06T07:58:36.209Z,65.30
2023-02-06T08:00:11.211Z,65.30
2023-02-06T08:02:00.277Z,65.30
2023-02-06T08:03:34.139Z,65.30
2023-02-06T08:05:08.381Z,65.30
2023-02-06T08:06:42.755Z,65.30
2023-02-06T08:08:16.006Z,65.30
2023-02-06T08:09:49.196Z,65.20
2023-02-06T08:11:25.058Z,65.30
2023-02-06T08:12:58.219Z,65.40
2023-02-06T08:14:31.523Z,65.20
2023-02-06T08:16:06.862Z,65.40
2023-02-06T08:17:42.635Z,65.30
2023-02-06T08:19:15.830Z,65.20
2023-02-06T08:20:48.914Z,65.10
2023-02-06T08:22:22.154Z,65.00
2023-02-06T08:24:01.292Z,65.00
2023-02-06T08:25:35.142Z,65.30
2023-02-06T08:27:08.599Z,65.40
2023-02-06T08:28:42.433Z,65.40
2023-02-06T08:30:15.878Z,65.30
2023-02-06T08:31:49.112Z,65.40
2023-02-06T08:33:23.652Z,65.40
2023-02-06T08:34:57.961Z,65.40
2023-02-06T08:36:32.412Z,65.40
2023-02-06T08:38:05.834Z,65.50
2023-02-06T08:39:39.112Z,65.60
2023-02-06T08:41:19.130Z,65.70
2023-02-06T08:42:52.420Z,65.60
2023-02-06T08:44:25.579Z,66.30
2023-02-06T08:45:59.479Z,65.40
2023-02-06T08:47:32.767Z,65.40
2023-02-06T08:49:12.063Z,65.40
2023-02-06T08:50:48.375Z,65.30
2023-02-06T08:52:22.597Z,65.10
2023-02-06T08:53:58.332Z,64.90
2023-02-06T08:55:31.477Z,64.80
2023-02-06T08:57:06.562Z,64.90
2023-02-06T08:58:40.512Z,64.60
2023-02-06T09:00:16.327Z,64.70
2023-02-06T09:01:50.370Z,64.70
2023-02-06T09:03:24.139Z,64.70
2023-02-06T09:04:59.240Z,64.60
2023-02-06T09:06:37.315Z,64.40
2023-02-06T09:08:10.551Z,64.30
2023-02-06T09:09:43.716Z,65.00
2023-02-06T09:11:21.114Z,64.40
2023-02-06T09:12:55.442Z,64.70
2023-02-06T09:14:29.346Z,64.80
2023-02-06T09:16:03.676Z,64.80
2023-02-06T09:17:37.192Z,64.80
2023-02-06T09:19:13.986Z,64.70
2023-02-06T09:20:49.841Z,64.80
2023-02-06T09:22:23.134Z,64.70
2023-02-06T09:23:59.708Z,64.90
2023-02-06T09:25:33.188Z,65.00
2023-02-06T09:27:06.512Z,64.80
2023-02-06T09:28:41.031Z,64.60
2023-02-06T09:30:16.324Z,64.70
2023-02-06T09:31:49.839Z,64.70
2023-02-06T09:33:23.824Z,64.60
2023-02-06T09:34:57.135Z,64.60
2023-02-06T09:36:34.376Z,64.50
2023-02-06T09:38:07.756Z,64.40
2023-02-06T09:39:41.065Z,64.10
2023-02-06T09:41:22.173Z,64.00
2023-02-06T09:42:57.319Z,64.00
2023-02-06T09:44:35.254Z,64.10
2023-02-06T09:46:15.816Z,64.10
2023-02-06T09:47:55.032Z,64.30
2023-02-06T09:49:36.911Z,64.40
2023-02-06T09:51:23.437Z,64.30
2023-02-06T09:53:17.093Z,64.10
2023-02-06T09:55:02.415Z,64.00
2023-02-06T09:56:49.402Z,64.00
2023-02-06T09:58:42.575Z,64.10
2023-02-06T10:00:41.496Z,64.70
2023-02-06T10:02:55.819Z,63.60
2023-02-06T10:04:43.254Z,63.40
2023-02-06T10:06:23.296Z,63.30
2023-02-06T10:08:11.926Z,63.40
2023-02-06T10:09:53.363Z,63.40
2023-02-06T10:11:42.101Z,63.40
2023-02-06T10:13:23.415Z,62.90
2023-02-06T10:15:02.077Z,62.70
2023-02-06T10:16:43.492Z,62.80
2023-02-06T10:18:25.405Z,62.70
2023-02-06T10:20:06.094Z,62.40
2023-02-06T10:21:47.418Z,62.40
2023-02-06T10:23:36.398Z,62.50
2023-02-06T10:25:26.019Z,62.60
2023-02-06T10:27:05.343Z,62.80
2023-02-06T10:28:40.464Z,62.90
2023-02-06T10:30:18.329Z,62.80
2023-02-06T10:32:07.629Z,62.80
2023-02-06T10:33:51.615Z,62.70
2023-02-06T10:35:44.184Z,62.50
2023-02-06T10:37:47.740Z,62.60
2023-02-06T10:39:55.449Z,62.50
2023-02-06T10:41:41.611Z,62.20
2023-02-06T10:43:26.241Z,62.20
2023-02-06T10:45:19.665Z,62.20
2023-02-06T10:46:56.376Z,62.20
2023-02-06T10:48:40.209Z,62.10
2023-02-06T10:50:29.358Z,62.00
2023-02-06T10:52:23.192Z,61.80
2023-02-06T10:54:02.251Z,61.80
2023-02-06T10:55:48.126Z,61.70
2023-02-06T10:57:25.312Z,61.70
2023-02-06T10:59:05.904Z,61.70
2023-02-06T11:00:41.728Z,61.50
2023-02-06T11:02:23.300Z,61.30
2023-02-06T11:04:05.512Z,61.20
2023-02-06T11:05:39.264Z,61.40
2023-02-06T11:07:20.650Z,61.10
2023-02-06T11:08:53.850Z,61.30
2023-02-06T11:10:28.372Z,60.90
2023-02-06T11:12:05.081Z,60.90
2023-02-06T11:13:40.587Z,60.80
2023-02-06T11:15:25.177Z,60.60
2023-02-06T11:17:01.435Z,60.50
2023-02-06T11:18:40.245Z,60.50
2023-02-06T11:20:21.884Z,60.40
2023-02-06T11:22:08.763Z,60.20
2023-02-06T11:23:42.696Z,60.20
2023-02-06T11:25:26.354Z,60.30
2023-02-06T11:27:03.681Z,60.30
2023-02-06T11:28:42.318Z,60.40
2023-02-06T11:30:31.875Z,60.50
2023-02-06T11:32:09.663Z,60.10
2023-02-06T11:33:51.470Z,60.10
2023-02-06T11:35:31.382Z,59.90
2023-02-06T11:37:07.623Z,59.90
2023-02-06T11:38:57.064Z,59.90
2023-02-06T11:40:30.791Z,59.70
2023-02-06T11:42:19.238Z,59.90
2023-02-06T11:43:54.884Z,60.30
2023-02-06T11:45:32.425Z,60.40
2023-02-06T11:47:30.129Z,60.10
2023-02-06T11:49:08.706Z,59.60
2023-02-06T11:50:41.850Z,59.70
2023-02-06T11:52:31.370Z,59.50
2023-02-06T11:54:06.269Z,59.40
2023-02-06T11:55:42.792Z,59.40
2023-02-06T11:57:24.308Z,59.40
2023-02-06T11:59:07.707Z,59.20
2023-02-06T12:00:43.475Z,59.00
2023-02-06T12:02:29.458Z,59.20
2023-02-06T12:04:03.123Z,58.90
2023-02-06T12:05:42.839Z,59.00
2023-02-06T12:07:30.897Z,58.90
2023-02-06T12:09:11.795Z,58.80
2023-02-06T12:10:57.077Z,58.50
2023-02-06T12:12:37.358Z,58.30
2023-02-06T12:14:19.046Z,58.40
2023-02-06T12:15:57.723Z,58.40
2023-02-06T12:17:37.365Z,58.30
2023-02-06T12:19:19.284Z,58.10
2023-02-06T12:20:59.880Z,58.10
2023-02-06T12:22:45.356Z,58.20
2023-02-06T12:24:30.200Z,58.20
2023-02-06T12:26:09.664Z,58.10
2023-02-06T12:27:45.633Z,58.30
2023-02-06T12:29:27.056Z,58.40
2023-02-06T12:31:04.783Z,58.40
2023-02-06T12:32:46.061Z,58.50
2023-02-06T12:34:25.376Z,58.50
2023-02-06T12:36:05.905Z,58.60
2023-02-06T12:37:45.063Z,58.60
2023-02-06T12:39:22.227Z,58.60
2023-02-06T12:41:14.619Z,58.70
2023-02-06T12:42:56.457Z,58.60
2023-02-06T12:44:38.334Z,58.70
2023-02-06T12:46:19.557Z,58.70
2023-02-06T12:48:00.240Z,58.70
2023-02-06T12:49:43.668Z,58.70
2023-02-06T12:51:25.938Z,58.90
2023-02-06T12:53:06.349Z,59.00
2023-02-06T12:54:46.552Z,59.10
2023-02-06T12:56:31.132Z,59.10
2023-02-06T12:58:06.441Z,59.10
2023-02-06T13:00:17.215Z,59.10
2023-02-06T13:02:00.548Z,59.10
2023-02-06T13:03:41.474Z,59.10
2023-02-06T13:05:23.169Z,59.30
2023-02-06T13:07:05.033Z,59.50
2023-02-06T13:08:45.994Z,59.60
2023-02-06T13:10:22.429Z,59.70
2023-02-06T13:12:08.562Z,59.80
2023-02-06T13:13:44.256Z,59.70
2023-02-06T13:15:24.864Z,59.80
2023-02-06T13:17:10.097Z,60.00
2023-02-06T13:19:04.947Z,59.90
2023-02-06T13:21:18.660Z,60.20
2023-02-06T13:22:54.235Z,60.40
2023-02-06T13:24:27.479Z,60.50
2023-02-06T13:26:03.047Z,60.50
2023-02-06T13:27:40.316Z,60.50
2023-02-06T13:29:26.111Z,61.00
2023-02-06T13:31:03.900Z,61.30
2023-02-06T13:32:50.189Z,61.50
2023-02-06T13:34:23.482Z,61.80
2023-02-06T13:35:59.467Z,61.60
2023-02-06T13:37:38.377Z,61.70
2023-02-06T13:39:23.780Z,61.70
2023-02-06T13:41:27.689Z,61.70
2023-02-06T13:43:05.042Z,61.50
2023-02-06T13:44:40.497Z,61.40
2023-02-06T13:46:18.602Z,60.10
2023-02-06T13:48:46.915Z,61.00
2023-02-06T13:51:00.999Z,61.00
2023-02-06T13:52:47.567Z,61.00
2023-02-06T13:54:56.397Z,61.00
2023-02-06T13:57:11.620Z,61.00
2023-02-06T13:58:49.570Z,61.00
2023-02-06T14:00:30.148Z,60.90
2023-02-06T14:02:11.712Z,60.90
2023-02-06T14:03:49.223Z,60.90
2023-02-06T14:05:30.648Z,61.00
2023-02-06T14:07:30.328Z,61.20
2023-02-06T14:09:43.855Z,61.40
2023-02-06T14:12:04.093Z,61.40
2023-02-06T14:13:56.565Z,61.50
2023-02-06T14:15:41.672Z,62.50
2023-02-06T14:17:34.554Z,61.80
2023-02-06T14:19:24.691Z,61.60
2023-02-06T14:21:13.876Z,61.60
2023-02-06T14:23:00.262Z,61.60
2023-02-06T14:25:04.427Z,61.60
2023-02-06T14:26:51.079Z,61.70
2023-02-06T14:28:33.108Z,61.70
2023-02-06T14:30:24.589Z,61.80
2023-02-06T14:32:31.730Z,61.70
2023-02-06T14:34:40.397Z,61.80
2023-02-06T14:36:38.121Z,61.80
2023-02-06T14:38:37.310Z,61.80
2023-02-06T14:40:21.468Z,61.80
2023-02-06T14:41:55.390Z,61.80
2023-02-06T14:43:35.161Z,61.90
2023-02-06T14:45:26.786Z,61.80
2023-02-06T14:47:00.552Z,61.70
2023-02-06T14:48:40.708Z,61.60
2023-02-06T14:50:23.254Z,61.60
2023-02-06T14:51:58.561Z,61.80
2023-02-06T14:53:36.673Z,61.80
2023-02-06T14:55:34.511Z,61.80
2023-02-06T14:57:16.547Z,61.70
2023-02-06T14:58:51.216Z,61.80
2023-02-06T15:00:25.911Z,61.70
2023-02-06T15:02:12.217Z,61.70
2023-02-06T15:03:49.078Z,61.70
2023-02-06T15:05:28.474Z,61.70
2023-02-06T15:07:04.604Z,61.70
2023-02-06T15:08:49.753Z,61.70
2023-02-06T15:10:30.288Z,62.50
2023-02-06T15:12:18.366Z,61.80
2023-02-06T15:13:55.034Z,61.70
2023-02-06T15:15:31.684Z,61.70
2023-02-06T15:17:04.966Z,61.80
2023-02-06T15:18:38.476Z,61.70
2023-02-06T15:20:29.184Z,61.80
2023-02-06T15:22:08.268Z,61.80
2023-02-06T15:23:59.890Z,61.70
2023-02-06T15:25:47.077Z,61.90
2023-02-06T15:27:29.682Z,62.00
2023-02-06T15:29:15.665Z,62.10
2023-02-06T15:30:55.558Z,62.10
2023-02-06T15:32:33.236Z,62.00
2023-02-06T15:34:06.520Z,62.30
2023-02-06T15:35:52.779Z,62.20
2023-02-06T15:37:33.316Z,62.30
2023-02-06T15:39:09.486Z,62.50
2023-02-06T15:40:47.896Z,62.50
2023-02-06T15:42:23.484Z,62.50
2023-02-06T15:44:03.491Z,62.60
2023-02-06T15:45:39.505Z,62.70
2023-02-06T15:47:17.190Z,62.70
2023-02-06T15:48:53.792Z,62.80
2023-02-06T15:50:29.368Z,62.90
2023-02-06T15:52:05.942Z,62.90
2023-02-06T15:53:43.953Z,62.90
2023-02-06T15:55:31.244Z,62.90
2023-02-06T15:57:08.381Z,63.00
2023-02-06T15:58:41.629Z,63.00
2023-02-06T16:00:24.436Z,62.80
2023-02-06T16:01:59.480Z,62.80
2023-02-06T16:03:33.309Z,62.80
2023-02-06T16:05:10.317Z,62.70
2023-02-06T16:06:43.951Z,62.70
2023-02-06T16:08:23.817Z,62.60
2023-02-06T16:10:05.905Z,62.70
2023-02-06T16:11:47.362Z,62.70
2023-02-06T16:13:26.848Z,62.70
2023-02-06T16:15:05.131Z,62.90
2023-02-06T16:16:38.558Z,63.00
2023-02-06T16:18:31.381Z,63.00
2023-02-06T16:20:24.885Z,63.00
2023-02-06T16:22:19.211Z,62.80
2023-02-06T16:24:06.808Z,62.70
2023-02-06T16:25:40.213Z,62.70
2023-02-06T16:27:20.413Z,62.50
2023-02-06T16:29:01.815Z,62.40
2023-02-06T16:30:37.331Z,62.50
2023-02-06T16:32:18.278Z,62.60
2023-02-06T16:33:53.040Z,62.60
2023-02-06T16:35:27.358Z,62.60
2023-02-06T16:37:00.470Z,62.50
2023-02-06T16:38:34.329Z,62.40
2023-02-06T16:40:10.506Z,62.30
2023-02-06T16:41:43.864Z,62.40
2023-02-06T16:43:17.081Z,62.20
2023-02-06T16:44:54.279Z,62.30
2023-02-06T16:46:29.994Z,62.60
2023-02-06T16:48:05.971Z,62.70
2023-02-06T16:49:39.801Z,62.50
2023-02-06T16:51:17.181Z,62.70
2023-02-06T16:52:55.153Z,62.60
2023-02-06T16:54:32.068Z,62.50
2023-02-06T16:56:10.971Z,62.30
2023-02-06T16:57:45.759Z,62.00
2023-02-06T16:59:19.624Z,61.80
2023-02-06T17:00:53.475Z,61.40
2023-02-06T17:02:27.949Z,61.50
2023-02-06T17:04:01.083Z,61.40
2023-02-06T17:05:37.201Z,61.30
2023-02-06T17:07:19.720Z,61.40
2023-02-06T17:08:55.297Z,61.50
2023-02-06T17:10:28.882Z,61.40
2023-02-06T17:12:03.420Z,61.30
2023-02-06T17:13:36.552Z,61.30
2023-02-06T17:15:13.421Z,61.30
2023-02-06T17:16:46.941Z,61.40
2023-02-06T17:18:24.040Z,61.40
2023-02-06T17:19:57.429Z,61.20
2023-02-06T17:21:33.955Z,61.00
2023-02-06T17:23:07.619Z,60.70
2023-02-06T17:24:42.124Z,60.70
2023-02-06T17:26:19.702Z,60.60
2023-02-06T17:27:59.847Z,60.60
2023-02-06T17:29:33.559Z,60.50
2023-02-06T17:31:07.024Z,60.50
2023-02-06T17:32:40.242Z,60.80
2023-02-06T17:34:13.372Z,60.50
2023-02-06T17:35:48.735Z,60.40
2023-02-06T17:37:22.764Z,60.30
2023-02-06T17:38:58.771Z,60.20
2023-02-06T17:40:35.968Z,60.20
2023-02-06T17:42:13.507Z,60.20
2023-02-06T17:43:48.014Z,60.20
2023-02-06T17:45:21.462Z,60.20
2023-02-06T17:46:54.709Z,60.10
2023-02-06T17:48:28.156Z,60.20
2023-02-06T17:50:01.665Z,60.20
2023-02-06T17:51:35.856Z,60.80
2023-02-06T17:53:13.709Z,59.90
2023-02-06T17:54:46.892Z,60.10
2023-02-06T17:56:20.847Z,60.10
2023-02-06T17:57:55.192Z,60.00
2023-02-06T17:59:29.674Z,60.10
2023-02-06T18:01:02.911Z,60.00
2023-02-06T18:02:36.682Z,60.10
2023-02-06T18:04:13.544Z,60.30
2023-02-06T18:05:47.893Z,60.60
2023-02-06T18:07:21.070Z,60.50
2023-02-06T18:08:54.256Z,60.70
2023-02-06T18:10:27.875Z,61.00
2023-02-06T18:12:01.112Z,61.20
2023-02-06T18:13:34.717Z,61.20
2023-02-06T18:15:13.602Z,61.30
2023-02-06T18:16:47.040Z,61.50
2023-02-06T18:18:21.579Z,61.50
2023-02-06T18:19:54.873Z,61.80
2023-02-06T18:21:29.358Z,61.80
2023-02-06T18:23:02.775Z,61.90
2023-02-06T18:24:35.948Z,62.00
2023-02-06T18:26:10.950Z,62.00
2023-02-06T18:27:46.182Z,62.10
2023-02-06T18:29:19.466Z,62.30
2023-02-06T18:30:54.091Z,62.10
2023-02-06T18:32:28.269Z,62.10
2023-02-06T18:34:03.805Z,62.00
2023-02-06T18:35:39.131Z,62.00
2023-02-06T18:37:13.295Z,61.80
2023-02-06T18:38:46.856Z,61.70
2023-02-06T18:40:20.375Z,61.50
2023-02-06T18:42:11.260Z,61.70
2023-02-06T18:43:44.607Z,61.70
2023-02-06T18:45:18.382Z,62.40
2023-02-06T18:46:53.316Z,61.70
2023-02-06T18:48:26.432Z,61.60
2023-02-06T18:49:59.920Z,61.40
2023-02-06T18:51:33.544Z,61.30
2023-02-06T18:53:06.746Z,61.30
2023-02-06T18:54:40.292Z,61.10
2023-02-06T18:56:14.280Z,61.10
2023-02-06T18:57:48.255Z,60.90
2023-02-06T18:59:21.744Z,60.70
2023-02-06T19:00:55.092Z,60.70
2023-02-06T19:02:29.804Z,60.60
2023-02-06T19:04:03.836Z,60.40
2023-02-06T19:05:37.400Z,60.30
2023-02-06T19:07:11.581Z,59.80
2023-02-06T19:08:46.704Z,59.80
2023-02-06T19:10:21.934Z,59.80
2023-02-06T19:11:54.982Z,59.90
2023-02-06T19:13:30.955Z,59.90
2023-02-06T19:15:05.641Z,59.90
2023-02-06T19:16:40.661Z,59.80
2023-02-06T19:18:15.318Z,59.80
2023-02-06T19:19:48.585Z,59.80
2023-02-06T19:21:28.088Z,59.80
2023-02-06T19:23:01.293Z,59.90
2023-02-06T19:24:42.540Z,59.90
2023-02-06T19:26:17.801Z,60.00
2023-02-06T19:27:50.900Z,60.10
2023-02-06T19:29:35.131Z,60.10
2023-02-06T19:31:11.776Z,60.10
2023-02-06T19:32:46.046Z,60.20
2023-02-06T19:34:20.802Z,60.10
2023-02-06T19:35:54.071Z,59.80
2023-02-06T19:37:28.008Z,59.80
2023-02-06T19:39:05.956Z,59.80
2023-02-06T19:40:39.515Z,59.70
2023-02-06T19:42:15.443Z,59.60
2023-02-06T19:43:49.342Z,59.60
2023-02-06T19:45:23.082Z,59.50
2023-02-06T19:46:56.810Z,59.50
2023-02-06T19:48:29.965Z,59.60
2023-02-06T19:50:05.096Z,59.60
2023-02-06T19:51:48.818Z,59.60
2023-02-06T19:53:22.139Z,59.60
2023-02-06T19:54:55.715Z,59.60
2023-02-06T19:56:34.308Z,59.80
2023-02-06T19:58:07.797Z,59.90
2023-02-06T19:59:41.837Z,59.80
2023-02-06T20:01:17.995Z,60.00
2023-02-06T20:02:51.905Z,60.10
2023-02-06T20:04:32.172Z,60.00
2023-02-06T20:06:10.750Z,60.60
2023-02-06T20:07:44.251Z,59.70
2023-02-06T20:09:19.334Z,59.60
2023-02-06T20:10:54.663Z,59.80
2023-02-06T20:12:29.197Z,59.70
2023-02-06T20:14:02.507Z,59.90
2023-02-06T20:15:39.409Z,60.10
2023-02-06T20:17:12.924Z,60.20
2023-02-06T20:18:46.474Z,60.10
2023-02-06T20:20:20.277Z,60.10
2023-02-06T20:22:00.945Z,60.30
2023-02-06T20:23:38.520Z,60.30
2023-02-06T20:25:12.009Z,60.20
2023-02-06T20:26:46.939Z,60.40
2023-02-06T20:28:20.292Z,60.50
2023-02-06T20:29:53.940Z,60.60
2023-02-06T20:31:28.065Z,60.60
2023-02-06T20:33:01.680Z,60.70
2023-02-06T20:34:36.138Z,60.70
2023-02-06T20:36:13.074Z,60.90
2023-02-06T20:37:47.690Z,60.90
2023-02-06T20:39:21.809Z,60.80
2023-02-06T20:40:54.992Z,60.90
2023-02-06T20:42:28.725Z,60.80
2023-02-06T20:44:02.642Z,60.80
2023-02-06T20:45:35.825Z,60.70
2023-02-06T20:47:09.096Z,60.60
2023-02-06T20:48:42.465Z,60.60
2023-02-06T20:50:16.592Z,60.50
2023-02-06T20:51:51.306Z,60.60
2023-02-06T20:53:25.938Z,60.50
2023-02-06T20:54:59.275Z,60.60
2023-02-06T20:56:32.396Z,60.70
2023-02-06T20:58:06.711Z,60.60
2023-02-06T20:59:40.150Z,60.80
2023-02-06T21:01:16.422Z,60.70